Latest Weather Observations for Williamson

IDQ60801

Issued at 12:32 pm EST Saturday 30 May 2015 (issued every 30 minutes, with the page automatically refreshed every 10 minutes)

About weather observations | Map of weather stations | Latest weather observations for QLD | Other Formats
Station Details ID: 033195 Name: WILLIAMSON Lat: -22.47 Lon: 150.18 Height: 27.6 m
Data from the previous 72 hours. | See also: Recent months at Williamson
Date/Time
EST
Temp
°C
App
Temp
°C
Dew
Point
Rel
Hum
%
Delta-T
°C
Wind Press
QNH
hPa
Press
MSL
hPa
Rain
since 9 am
mm
Dir
 
Spd
km/h
Gust
km/h
Spd
kts
Gust
kts
30/12:30pm 26.8 26.9 16.4 53 6.4 NE 11 20 6 11 1019.7 1019.6 0.0
30/12:00pm 27.4 27.1 16.4 51 6.8 NE 13 22 7 12 1020.2 1020.1 0.0
30/11:30am 26.4 26.2 16.6 55 6.1 ENE 13 22 7 12 1021.0 1020.9 0.0
30/11:00am 25.6 24.9 16.4 56 5.6 ENE 15 20 8 11 1021.4 1021.3 0.0
30/10:30am 26.2 26.8 17.8 60 5.3 E 11 20 6 11 1021.6 1021.5 0.0
30/10:00am 24.5 27.7 18.9 71 3.6 CALM 0 0 0 0 1022.0 1021.9 0.0
30/09:30am 23.6 26.1 19.1 76 2.9 S 4 9 2 5 1022.4 1022.3 0.0
30/09:00am 22.1 24.0 18.9 82 2.0 SSW 7 11 4 6 1022.7 1022.6 0.0
30/08:30am 20.3 21.1 18.2 88 1.3 S 11 15 6 8 1022.5 1022.4 0.0
30/08:00am 18.7 20.4 18.4 98 0.2 S 7 11 4 6 1022.3 1022.2 0.0
30/07:30am 17.4 18.7 17.1 98 0.2 SSE 6 7 3 4 1021.9 1021.8 0.0
30/07:00am 16.9 18.8 16.6 98 0.2 SSE 2 7 1 4 1021.8 1021.7 0.0
30/06:30am 16.7 18.9 16.4 98 0.2 CALM 0 0 0 0 1021.6 1021.5 0.0
30/06:00am 17.2 18.4 16.9 98 0.2 SSE 6 9 3 5 1021.4 1021.3 0.0
30/05:30am 17.4 19.5 17.1 98 0.2 SSE 2 7 1 4 1021.0 1020.9 0.0
30/05:00am 17.4 18.1 17.1 98 0.2 S 9 11 5 6 1020.8 1020.7 0.0
30/04:30am 17.2 19.2 16.9 98 0.2 SSW 2 6 1 3 1020.9 1020.8 0.0
30/04:00am 16.0 17.9 15.7 98 0.2 CALM 0 0 0 0 1020.8 1020.7 0.0
30/03:30am 15.7 17.5 15.4 98 0.2 CALM 0 0 0 0 1020.7 1020.6 0.0
30/03:00am 16.1 16.9 15.8 98 0.2 SSE 6 9 3 5 1020.7 1020.6 0.0
30/02:30am 16.2 17.4 15.9 98 0.2 WNW 4 6 2 3 1021.0 1020.9 0.0
30/02:00am 15.9 17.6 15.3 96 0.3 CALM 0 0 0 0 1020.8 1020.7 0.0
30/01:30am 15.9 17.5 14.9 94 0.6 CALM 0 0 0 0 1021.2 1021.1 0.0
30/01:00am 16.6 18.4 15.5 93 0.6 CALM 0 0 0 0 1021.6 1021.5 0.0
30/12:30am 17.1 18.9 15.6 91 0.9 CALM 0 0 0 0 1021.7 1021.6 0.0
30/12:00am 18.6 19.5 16.6 88 1.2 S 7 7 4 4 1021.8 1021.7 0.0
 
Date/Time
EST
Temp
°C
App
Temp
°C
Dew
Point
Rel
Hum
%
Delta-T
°C
Wind Press
QNH
hPa
Press
MSL
hPa
Rain
since 9 am
mm
Dir
 
Spd
km/h
Gust
km/h
Spd
kts
Gust
kts
29/11:30pm 20.4 22.2 18.3 88 1.3 SE 6 9 3 5 1022.1 1022.0 0.0
29/11:00pm 21.1 23.1 18.7 86 1.5 E 6 9 3 5 1022.2 1022.1 0.0
29/10:30pm 21.5 23.0 18.9 85 1.6 E 9 17 5 9 1022.4 1022.3 0.0
29/10:00pm 21.4 23.1 18.6 84 1.8 ENE 7 17 4 9 1022.5 1022.4 0.0
29/09:30pm 21.5 22.8 18.5 83 1.9 E 9 13 5 7 1022.4 1022.3 0.0
29/09:00pm 21.6 22.7 18.0 80 2.2 ENE 9 17 5 9 1022.4 1022.3 0.0
29/08:30pm 21.6 22.3 18.0 80 2.2 E 11 19 6 10 1022.3 1022.2 0.0
29/08:00pm 20.9 22.1 17.3 80 2.2 E 7 9 4 5 1022.4 1022.3 0.0
29/07:30pm 21.0 22.2 17.4 80 2.2 E 7 9 4 5 1022.1 1022.0 0.0
29/07:00pm 21.4 22.6 17.4 78 2.5 E 7 13 4 7 1021.8 1021.7 0.0
29/06:30pm 22.3 23.1 17.4 74 3.0 E 9 13 5 7 1021.6 1021.5 0.0
29/06:00pm 22.6 23.8 17.3 72 3.3 E 7 11 4 6 1021.4 1021.3 0.0
29/05:30pm 23.2 24.0 17.4 70 3.6 E 9 15 5 8 1020.8 1020.7 0.0
29/05:00pm 24.1 24.1 17.1 65 4.3 ENE 13 20 7 11 1020.6 1020.5 0.0
29/04:30pm 24.8 24.8 17.3 63 4.7 ENE 13 24 7 13 1020.4 1020.3 0.0
29/04:00pm 25.5 25.8 16.9 59 5.3 E 11 19 6 10 1020.1 1020.0 0.0
29/03:30pm 26.0 25.6 17.1 58 5.5 E 15 26 8 14 1019.8 1019.7 0.0
29/03:00pm 25.9 25.2 16.5 56 5.8 ENE 15 22 8 12 1019.5 1019.4 0.0
29/02:30pm 26.8 26.3 17.0 55 6.1 E 15 24 8 13 1019.6 1019.5 0.0
29/02:00pm 25.5 25.6 17.4 61 5.0 SE 13 20 7 11 1019.9 1019.8 0.0
29/01:30pm 25.3 25.4 17.5 62 4.9 ESE 13 19 7 10 1020.1 1020.0 0.0
29/01:00pm 25.5 25.8 16.9 59 5.3 SE 11 20 6 11 1020.3 1020.2 0.0
29/12:30pm 25.4 26.4 16.8 59 5.3 ESE 7 13 4 7 1020.8 1020.7 0.0
29/12:00pm 25.5 25.6 16.4 57 5.6 E 11 19 6 10 1021.4 1021.3 0.0
29/11:30am 26.4 26.3 16.0 52 6.4 E 11 17 6 9 1021.9 1021.8 0.0
29/11:00am 25.3 26.0 17.0 60 5.1 SE 9 15 5 8 1022.3 1022.2 0.0
29/10:30am 24.1 25.6 18.1 69 3.8 W 7 13 4 7 1022.8 1022.7 0.0
29/10:00am 23.2 24.4 18.3 74 3.1 SW 9 13 5 7 1022.9 1022.8 0.0
29/09:30am 22.2 23.9 18.6 80 2.3 S 7 9 4 5 1023.4 1023.3 0.0
29/09:00am 20.3 22.1 18.2 88 1.3 SSW 6 9 3 5 1023.4 1023.3 0.0
29/08:30am 19.1 20.9 18.8 98 0.2 S 7 9 4 5 1023.1 1023.0 0.0
29/08:00am 17.4 18.5 17.1 98 0.2 S 7 9 4 5 1022.9 1022.8 0.0
29/07:30am 15.8 17.6 15.5 98 0.2 CALM 0 0 0 0 1022.7 1022.6 0.0
29/07:00am 14.4 15.7 14.1 98 0.2 CALM 0 6 0 3 1022.5 1022.4 0.0
29/06:30am 13.7 13.6 13.4 98 0.2 SE 6 7 3 4 1022.3 1022.2 0.0
29/06:00am 13.5 14.5 13.2 98 0.2 CALM 0 0 0 0 1022.1 1022.0 0.0
29/05:30am 13.3 14.1 12.7 96 0.3 CALM 0 0 0 0 1021.9 1021.8 0.0
29/05:00am 13.6 14.3 13.3 98 0.2 SSE 2 6 1 3 1021.6 1021.5 0.0
29/04:30am 15.5 16.1 15.2 98 0.2 SSE 6 9 3 5 1021.4 1021.3 0.0
29/04:00am 14.0 15.1 13.5 97 0.3 CALM 0 0 0 0 1021.4 1021.3 0.0
29/03:30am 14.7 16.1 14.4 98 0.2 CALM 0 6 0 3 1021.5 1021.4 0.0
29/03:00am 14.7 15.0 14.4 98 0.2 S 6 7 3 4 1021.7 1021.6 0.0
29/02:30am 14.4 14.5 13.9 97 0.3 SSE 6 9 3 5 1021.7 1021.6 0.0
29/02:00am 14.4 15.1 13.4 94 0.6 S 2 7 1 4 1021.7 1021.6 0.0
29/01:30am 15.0 15.5 14.0 94 0.6 S 4 6 2 3 1021.7 1021.6 0.0
29/01:00am 15.2 16.5 14.2 94 0.6 CALM 0 0 0 0 1022.0 1021.9 0.0
29/12:30am 15.3 16.6 14.2 93 0.6 CALM 0 6 0 3 1022.2 1022.1 0.0
29/12:00am 15.5 16.7 13.9 90 0.9 CALM 0 0 0 0 1022.3 1022.2 0.0
 
Date/Time
EST
Temp
°C
App
Temp
°C
Dew
Point
Rel
Hum
%
Delta-T
°C
Wind Press
QNH
hPa
Press
MSL
hPa
Rain
since 9 am
mm
Dir
 
Spd
km/h
Gust
km/h
Spd
kts
Gust
kts
28/11:30pm 16.0 17.2 13.7 86 1.3 CALM 0 0 0 0 1022.4 1022.3 0.0
28/11:00pm 18.1 19.8 15.2 83 1.7 CALM 0 6 0 3 1022.5 1022.4 0.0
28/10:30pm 19.3 20.2 16.2 82 1.9 ESE 6 7 3 4 1022.7 1022.6 0.0
28/10:00pm 19.7 21.1 16.5 82 1.9 ESE 4 7 2 4 1022.5 1022.4 0.0
28/09:30pm 20.7 21.8 16.7 78 2.4 ESE 6 11 3 6 1022.5 1022.4 0.0
28/09:00pm 21.3 22.0 17.1 77 2.6 ESE 9 15 5 8 1022.3 1022.2 0.0
28/08:30pm 21.0 21.6 16.8 77 2.6 E 9 15 5 8 1022.2 1022.1 0.0
28/08:00pm 21.0 21.9 16.6 76 2.7 ESE 7 11 4 6 1022.2 1022.1 0.0
28/07:30pm 21.2 22.2 16.8 76 2.7 E 7 11 4 6 1021.7 1021.6 0.0
28/07:00pm 20.9 21.9 16.3 75 2.8 E 6 9 3 5 1021.5 1021.4 0.0
28/06:30pm 21.5 21.8 16.0 71 3.3 E 9 19 5 10 1021.1 1021.0 0.0
28/06:00pm 22.2 22.4 15.8 67 3.8 ESE 9 15 5 8 1020.8 1020.7 0.0
28/05:30pm 22.8 22.5 15.4 63 4.4 E 11 19 6 10 1020.5 1020.4 0.0
28/05:00pm 23.5 23.3 14.8 58 5.2 ESE 9 17 5 9 1020.3 1020.2 0.0
28/04:30pm 24.2 22.9 14.9 56 5.6 ESE 15 24 8 13 1020.1 1020.0 0.0
28/04:00pm 25.1 24.5 15.7 56 5.7 E 13 26 7 14 1019.8 1019.7 0.0
28/03:30pm 25.0 24.3 15.3 55 5.9 ESE 13 20 7 11 1019.7 1019.6 0.0
28/03:00pm 24.6 23.1 15.2 55 5.6 ESE 17 28 9 15 1019.8 1019.7 0.0
28/02:30pm 25.5 24.2 15.8 55 5.9 ENE 17 28 9 15 1019.7 1019.6 0.0
28/02:00pm 24.6 23.9 15.5 57 5.5 ESE 13 24 7 13 1019.8 1019.7 0.0
28/01:30pm 25.7 25.5 14.8 51 6.5 ESE 9 17 5 9 1019.9 1019.8 0.0
28/01:00pm 25.4 25.4 15.1 53 6.2 ESE 9 15 5 8 1020.2 1020.1 0.0
28/12:30pm 26.1 25.6 15.8 53 6.3 ESE 13 20 7 11 1020.7 1020.6 0.0
28/12:00pm 26.5 24.8 14.6 48 7.1 E 17 26 9 14 1021.2 1021.1 0.0
28/11:30am 25.8 24.8 14.6 50 6.7 SE 13 20 7 11 1021.6 1021.5 0.0
28/11:00am 25.5 25.0 15.8 55 5.9 E 13 22 7 12 1021.8 1021.7 0.0
28/10:30am 24.1 23.3 16.1 61 4.9 ESE 15 24 8 13 1022.2 1022.1 0.0
28/10:00am 24.4 23.4 15.6 58 5.3 ESE 15 24 8 13 1022.5 1022.4 0.0
28/09:30am 22.6 23.3 17.9 75 2.9 S 11 15 6 8 1022.5 1022.4 0.0
28/09:00am 21.4 22.1 18.0 81 2.1 S 11 17 6 9 1022.6 1022.5 0.0
28/08:30am 19.7 21.5 18.2 91 0.9 S 6 9 3 5 1022.5 1022.4 0.0
28/08:00am 17.8 19.1 17.5 98 0.2 S 7 9 4 5 1022.3 1022.2 0.0
28/07:30am 16.5 17.2 16.2 98 0.2 S 7 11 4 6 1021.8 1021.7 0.0
28/07:00am 15.0 15.4 14.7 98 0.2 S 6 9 3 5 1021.6 1021.5 0.0
28/06:30am 14.3 14.8 14.0 98 0.2 SSE 4 7 2 4 1021.4 1021.3 0.0
28/06:00am 13.7 13.9 13.2 97 0.3 S 4 7 2 4 1021.0 1020.9 0.0
28/05:30am 14.5 14.7 14.2 98 0.2 SSE 6 7 3 4 1020.8 1020.7 0.0
28/05:00am 13.8 14.8 13.3 97 0.3 CALM 0 0 0 0 1020.5 1020.4 0.0
28/04:30am 14.1 15.2 13.6 97 0.3 CALM 0 0 0 0 1020.3 1020.2 0.0
28/04:00am 14.5 15.8 14.0 97 0.3 CALM 0 0 0 0 1020.1 1020.0 0.0
28/03:30am 14.6 15.7 13.6 94 0.6 CALM 0 0 0 0 1020.2 1020.1 0.0
28/03:00am 15.1 16.5 14.3 95 0.5 CALM 0 0 0 0 1020.3 1020.2 0.0
28/02:30am 16.4 18.4 15.9 97 0.3 CALM 0 6 0 3 1020.5 1020.4 0.0
28/02:00am 17.0 18.1 16.7 98 0.2 SSE 6 7 3 4 1020.9 1020.8 0.0
28/01:30am 16.8 17.7 16.5 98 0.2 S 7 11 4 6 1021.1 1021.0 0.0
28/01:00am 16.0 17.1 15.5 97 0.3 S 4 9 2 5 1021.2 1021.1 0.0
28/12:30am 15.9 16.3 15.4 97 0.3 S 7 11 4 6 1021.1 1021.0 0.0
28/12:00am 15.9 16.8 15.1 95 0.5 S 4 7 2 4 1020.8 1020.7 0.0
 
Date/Time
EST
Temp
°C
App
Temp
°C
Dew
Point
Rel
Hum
%
Delta-T
°C
Wind Press
QNH
hPa
Press
MSL
hPa
Rain
since 9 am
mm
Dir
 
Spd
km/h
Gust
km/h
Spd
kts
Gust
kts
27/11:30pm 16.3 18.0 15.3 94 0.6 CALM 0 0 0 0 1021.1 1021.0 0.0
27/11:00pm 16.6 17.3 15.5 93 0.6 SSW 6 7 3 4 1021.5 1021.4 0.0
27/10:30pm 17.0 18.6 15.0 88 1.2 CALM 0 0 0 0 1021.5 1021.4 0.0
27/10:00pm 18.2 18.8 15.8 86 1.4 SSE 7 11 4 6 1021.6 1021.5 0.0
27/09:30pm 20.1 21.2 17.1 83 1.8 SE 7 15 4 8 1021.6 1021.5 0.0
27/09:00pm 20.5 21.2 17.1 81 2.1 ESE 9 17 5 9 1021.5 1021.4 0.0
27/08:30pm 19.7 20.6 16.7 83 1.8 SSE 7 11 4 6 1021.2 1021.1 0.0
27/08:00pm 20.6 20.8 16.8 79 2.3 SE 11 17 6 9 1021.0 1020.9 0.0
27/07:30pm 20.8 20.5 16.4 76 2.7 ESE 13 22 7 12 1021.0 1020.9 0.0
27/07:00pm 21.3 22.0 16.0 72 3.2 E 7 13 4 7 1020.9 1020.8 0.0
27/06:30pm 21.5 21.3 15.8 70 3.4 ESE 11 19 6 10 1020.8 1020.7 0.0
27/06:00pm 21.8 21.6 15.6 68 3.7 ESE 11 17 6 9 1020.6 1020.5 0.0
27/05:30pm 22.5 21.8 15.4 64 4.2 ESE 13 20 7 11 1020.2 1020.1 0.0
27/05:00pm 23.1 22.4 15.4 62 4.6 ESE 13 19 7 10 1020.0 1019.9 0.0
27/04:30pm 23.6 22.2 15.6 61 4.8 ESE 17 24 9 13 1019.5 1019.4 0.0
27/04:00pm 24.1 23.0 15.3 58 5.3 E 15 30 8 16 1019.4 1019.3 0.0
27/03:30pm 24.8 24.5 15.4 56 5.7 E 11 19 6 10 1019.4 1019.3 0.0
27/03:00pm 24.3 23.2 15.2 57 5.5 ESE 15 22 8 12 1019.4 1019.3 0.0
27/02:30pm 25.0 24.5 15.0 53 6.0 ESE 11 22 6 12 1019.4 1019.3 0.0
27/02:00pm 24.0 23.5 15.0 57 5.4 E 11 17 6 9 1019.6 1019.5 0.0
27/01:30pm 25.3 25.6 14.4 50 6.5 ENE 6 11 3 6 1019.7 1019.6 0.0
27/01:00pm 25.3 25.1 14.7 51 6.3 SSE 9 13 5 7 1020.0 1019.9 0.0

Other Formats:

Comma delimited format used in spreadsheet applications
http://www.bom.gov.au/fwo/IDQ60801/IDQ60801.95370.axf

JavaScript Object Notation format (JSON) in row-major order
http://www.bom.gov.au/fwo/IDQ60801/IDQ60801.95370.json